sensor_id;sensor_type;location;lat;lon;timestamp;P1;durP1;ratioP1;P2;durP2;ratioP2
3491;SDS011;1760;52.480;13.422;2022-10-15T00:02:20;18.83;;;10.90;;
3491;SDS011;1760;52.480;13.422;2022-10-15T00:04:51;16.77;;;10.40;;
3491;SDS011;1760;52.480;13.422;2022-10-15T00:07:20;20.50;;;11.63;;
3491;SDS011;1760;52.480;13.422;2022-10-15T00:09:49;14.77;;;9.67;;
3491;SDS011;1760;52.480;13.422;2022-10-15T00:12:16;19.80;;;11.63;;
3491;SDS011;1760;52.480;13.422;2022-10-15T00:14:42;16.17;;;10.30;;
3491;SDS011;1760;52.480;13.422;2022-10-15T00:17:09;21.77;;;10.97;;
3491;SDS011;1760;52.480;13.422;2022-10-15T00:19:36;19.40;;;11.23;;
3491;SDS011;1760;52.480;13.422;2022-10-15T00:22:04;18.10;;;10.93;;
3491;SDS011;1760;52.480;13.422;2022-10-15T00:24:31;20.60;;;12.23;;
3491;SDS011;1760;52.480;13.422;2022-10-15T00:26:57;24.50;;;12.90;;
3491;SDS011;1760;52.480;13.422;2022-10-15T00:29:24;17.53;;;11.13;;
3491;SDS011;1760;52.480;13.422;2022-10-15T00:31:51;15.23;;;10.23;;
3491;SDS011;1760;52.480;13.422;2022-10-15T00:34:18;19.50;;;12.20;;
3491;SDS011;1760;52.480;13.422;2022-10-15T00:36:48;19.13;;;12.40;;
3491;SDS011;1760;52.480;13.422;2022-10-15T00:39:17;19.10;;;11.13;;
3491;SDS011;1760;52.480;13.422;2022-10-15T00:41:44;17.83;;;10.03;;
3491;SDS011;1760;52.480;13.422;2022-10-15T00:47:14;20.67;;;11.27;;
3491;SDS011;1760;52.480;13.422;2022-10-15T00:49:44;15.23;;;11.30;;
3491;SDS011;1760;52.480;13.422;2022-10-15T00:52:20;17.63;;;11.13;;
3491;SDS011;1760;52.480;13.422;2022-10-15T00:54:53;16.13;;;10.47;;
3491;SDS011;1760;52.480;13.422;2022-10-15T00:57:25;19.80;;;11.97;;
3491;SDS011;1760;52.480;13.422;2022-10-15T01:00:04;19.70;;;10.40;;
3491;SDS011;1760;52.480;13.422;2022-10-15T01:02:33;13.90;;;10.00;;
3491;SDS011;1760;52.480;13.422;2022-10-15T01:05:00;16.33;;;10.47;;
3491;SDS011;1760;52.480;13.422;2022-10-15T01:07:29;15.93;;;10.87;;
3491;SDS011;1760;52.480;13.422;2022-10-15T01:09:58;15.97;;;10.50;;
3491;SDS011;1760;52.480;13.422;2022-10-15T01:12:33;18.73;;;10.43;;
3491;SDS011;1760;52.480;13.422;2022-10-15T01:15:11;20.37;;;11.93;;
3491;SDS011;1760;52.480;13.422;2022-10-15T01:17:51;17.40;;;11.30;;
3491;SDS011;1760;52.480;13.422;2022-10-15T01:26:28;18.97;;;11.07;;
3491;SDS011;1760;52.480;13.422;2022-10-15T01:29:19;16.97;;;10.67;;
3491;SDS011;1760;52.480;13.422;2022-10-15T01:32:01;17.40;;;11.13;;
3491;SDS011;1760;52.480;13.422;2022-10-15T01:34:35;17.33;;;11.10;;
3491;SDS011;1760;52.480;13.422;2022-10-15T01:37:06;17.37;;;9.67;;
3491;SDS011;1760;52.480;13.422;2022-10-15T01:39:38;19.27;;;10.80;;
3491;SDS011;1760;52.480;13.422;2022-10-15T01:42:10;15.13;;;9.10;;
3491;SDS011;1760;52.480;13.422;2022-10-15T01:44:43;23.10;;;11.70;;
3491;SDS011;1760;52.480;13.422;2022-10-15T01:47:18;16.97;;;10.70;;
3491;SDS011;1760;52.480;13.422;2022-10-15T01:49:48;17.60;;;10.70;;
3491;SDS011;1760;52.480;13.422;2022-10-15T01:52:20;13.30;;;9.13;;
3491;SDS011;1760;52.480;13.422;2022-10-15T01:54:52;21.00;;;11.17;;
3491;SDS011;1760;52.480;13.422;2022-10-15T01:57:21;14.30;;;10.97;;
3491;SDS011;1760;52.480;13.422;2022-10-15T01:59:50;17.37;;;10.77;;
3491;SDS011;1760;52.480;13.422;2022-10-15T02:02:20;14.50;;;9.10;;
3491;SDS011;1760;52.480;13.422;2022-10-15T02:04:47;14.87;;;9.93;;
3491;SDS011;1760;52.480;13.422;2022-10-15T02:07:14;21.57;;;10.50;;
3491;SDS011;1760;52.480;13.422;2022-10-15T02:10:03;19.70;;;11.13;;
3491;SDS011;1760;52.480;13.422;2022-10-15T02:12:45;19.90;;;11.87;;
3491;SDS011;1760;52.480;13.422;2022-10-15T02:15:24;21.10;;;10.50;;
3491;SDS011;1760;52.480;13.422;2022-10-15T02:18:00;16.83;;;10.40;;
3491;SDS011;1760;52.480;13.422;2022-10-15T02:20:34;18.50;;;10.70;;
3491;SDS011;1760;52.480;13.422;2022-10-15T02:23:11;18.63;;;9.97;;
3491;SDS011;1760;52.480;13.422;2022-10-15T02:25:43;29.17;;;11.80;;
3491;SDS011;1760;52.480;13.422;2022-10-15T02:28:11;12.60;;;9.20;;
3491;SDS011;1760;52.480;13.422;2022-10-15T02:30:40;13.77;;;9.50;;
3491;SDS011;1760;52.480;13.422;2022-10-15T02:33:13;17.70;;;9.13;;
3491;SDS011;1760;52.480;13.422;2022-10-15T02:35:45;19.23;;;10.30;;
3491;SDS011;1760;52.480;13.422;2022-10-15T02:38:15;13.77;;;8.90;;
3491;SDS011;1760;52.480;13.422;2022-10-15T02:40:45;18.43;;;10.90;;
3491;SDS011;1760;52.480;13.422;2022-10-15T02:43:14;18.90;;;10.70;;
3491;SDS011;1760;52.480;13.422;2022-10-15T02:45:48;18.40;;;10.00;;
3491;SDS011;1760;52.480;13.422;2022-10-15T02:48:16;18.50;;;10.23;;
3491;SDS011;1760;52.480;13.422;2022-10-15T02:50:45;15.87;;;9.73;;
3491;SDS011;1760;52.480;13.422;2022-10-15T02:53:11;17.17;;;10.73;;
3491;SDS011;1760;52.480;13.422;2022-10-15T02:55:38;16.37;;;9.80;;
3491;SDS011;1760;52.480;13.422;2022-10-15T02:58:06;17.17;;;11.20;;
3491;SDS011;1760;52.480;13.422;2022-10-15T03:00:35;14.90;;;9.90;;
3491;SDS011;1760;52.480;13.422;2022-10-15T03:03:06;22.43;;;11.77;;
3491;SDS011;1760;52.480;13.422;2022-10-15T03:05:37;16.60;;;9.57;;
3491;SDS011;1760;52.480;13.422;2022-10-15T03:08:04;15.53;;;9.30;;
3491;SDS011;1760;52.480;13.422;2022-10-15T03:10:31;17.90;;;9.93;;
3491;SDS011;1760;52.480;13.422;2022-10-15T03:13:00;16.30;;;10.00;;
3491;SDS011;1760;52.480;13.422;2022-10-15T03:15:28;22.10;;;10.47;;
3491;SDS011;1760;52.480;13.422;2022-10-15T03:17:55;21.33;;;11.47;;
3491;SDS011;1760;52.480;13.422;2022-10-15T03:20:22;16.13;;;9.00;;
3491;SDS011;1760;52.480;13.422;2022-10-15T03:22:50;18.20;;;9.90;;
3491;SDS011;1760;52.480;13.422;2022-10-15T03:25:17;14.77;;;10.17;;
3491;SDS011;1760;52.480;13.422;2022-10-15T03:27:44;19.83;;;11.27;;
3491;SDS011;1760;52.480;13.422;2022-10-15T03:30:13;19.13;;;9.97;;
3491;SDS011;1760;52.480;13.422;2022-10-15T03:32:40;16.93;;;10.00;;
3491;SDS011;1760;52.480;13.422;2022-10-15T03:35:10;17.23;;;10.20;;
3491;SDS011;1760;52.480;13.422;2022-10-15T03:37:36;14.40;;;10.10;;
3491;SDS011;1760;52.480;13.422;2022-10-15T03:40:07;15.87;;;9.70;;
3491;SDS011;1760;52.480;13.422;2022-10-15T03:42:34;17.00;;;10.53;;
3491;SDS011;1760;52.480;13.422;2022-10-15T03:45:03;23.67;;;9.23;;
3491;SDS011;1760;52.480;13.422;2022-10-15T03:47:30;17.73;;;10.20;;
3491;SDS011;1760;52.480;13.422;2022-10-15T03:50:00;15.70;;;10.27;;
3491;SDS011;1760;52.480;13.422;2022-10-15T03:52:29;15.40;;;9.77;;
3491;SDS011;1760;52.480;13.422;2022-10-15T03:54:57;15.20;;;9.70;;
3491;SDS011;1760;52.480;13.422;2022-10-15T03:57:25;17.07;;;10.47;;
3491;SDS011;1760;52.480;13.422;2022-10-15T03:59:54;16.60;;;9.43;;
3491;SDS011;1760;52.480;13.422;2022-10-15T04:02:21;17.77;;;10.40;;
3491;SDS011;1760;52.480;13.422;2022-10-15T04:04:50;19.40;;;10.07;;
3491;SDS011;1760;52.480;13.422;2022-10-15T04:07:20;15.00;;;9.20;;
3491;SDS011;1760;52.480;13.422;2022-10-15T04:09:51;12.70;;;9.10;;
3491;SDS011;1760;52.480;13.422;2022-10-15T04:12:18;14.33;;;9.63;;
3491;SDS011;1760;52.480;13.422;2022-10-15T04:14:46;15.70;;;9.63;;
3491;SDS011;1760;52.480;13.422;2022-10-15T04:17:13;17.90;;;10.37;;
3491;SDS011;1760;52.480;13.422;2022-10-15T04:19:43;16.77;;;9.90;;
3491;SDS011;1760;52.480;13.422;2022-10-15T04:22:13;14.20;;;10.00;;
3491;SDS011;1760;52.480;13.422;2022-10-15T04:24:39;20.63;;;9.93;;
3491;SDS011;1760;52.480;13.422;2022-10-15T04:27:06;19.40;;;10.40;;
3491;SDS011;1760;52.480;13.422;2022-10-15T04:29:39;14.63;;;9.43;;
3491;SDS011;1760;52.480;13.422;2022-10-15T04:32:11;19.60;;;9.53;;
3491;SDS011;1760;52.480;13.422;2022-10-15T04:34:39;17.10;;;9.50;;
3491;SDS011;1760;52.480;13.422;2022-10-15T04:37:05;19.73;;;11.57;;
3491;SDS011;1760;52.480;13.422;2022-10-15T04:39:35;16.97;;;11.00;;
3491;SDS011;1760;52.480;13.422;2022-10-15T04:42:03;19.43;;;11.60;;
3491;SDS011;1760;52.480;13.422;2022-10-15T04:44:30;13.97;;;9.67;;
3491;SDS011;1760;52.480;13.422;2022-10-15T04:46:57;14.60;;;10.50;;
3491;SDS011;1760;52.480;13.422;2022-10-15T04:49:28;15.83;;;9.97;;
3491;SDS011;1760;52.480;13.422;2022-10-15T04:51:55;15.73;;;9.50;;
3491;SDS011;1760;52.480;13.422;2022-10-15T04:54:21;14.40;;;9.00;;
3491;SDS011;1760;52.480;13.422;2022-10-15T04:56:48;14.53;;;9.00;;
3491;SDS011;1760;52.480;13.422;2022-10-15T04:59:18;17.07;;;10.10;;
3491;SDS011;1760;52.480;13.422;2022-10-15T05:01:45;20.50;;;9.80;;
3491;SDS011;1760;52.480;13.422;2022-10-15T05:04:14;16.03;;;8.03;;
3491;SDS011;1760;52.480;13.422;2022-10-15T05:53:19;17.27;;;9.50;;
3491;SDS011;1760;52.480;13.422;2022-10-15T05:55:48;16.13;;;8.23;;
3491;SDS011;1760;52.480;13.422;2022-10-15T05:58:18;21.43;;;11.23;;
3491;SDS011;1760;52.480;13.422;2022-10-15T06:00:45;13.37;;;9.30;;
3491;SDS011;1760;52.480;13.422;2022-10-15T06:03:18;13.90;;;8.53;;
3491;SDS011;1760;52.480;13.422;2022-10-15T06:05:45;18.80;;;9.67;;
3491;SDS011;1760;52.480;13.422;2022-10-15T06:08:12;12.83;;;7.80;;
3491;SDS011;1760;52.480;13.422;2022-10-15T06:10:40;15.63;;;9.07;;
3491;SDS011;1760;52.480;13.422;2022-10-15T06:13:08;14.50;;;8.90;;
3491;SDS011;1760;52.480;13.422;2022-10-15T06:15:42;11.17;;;7.63;;
3491;SDS011;1760;52.480;13.422;2022-10-15T06:18:10;14.53;;;8.43;;
3491;SDS011;1760;52.480;13.422;2022-10-15T06:20:40;12.60;;;7.57;;
3491;SDS011;1760;52.480;13.422;2022-10-15T06:23:11;10.83;;;7.63;;
3491;SDS011;1760;52.480;13.422;2022-10-15T06:25:38;9.33;;;7.70;;
3491;SDS011;1760;52.480;13.422;2022-10-15T06:28:06;13.70;;;7.93;;
3491;SDS011;1760;52.480;13.422;2022-10-15T06:30:33;13.63;;;8.50;;
3491;SDS011;1760;52.480;13.422;2022-10-15T06:33:02;10.27;;;8.10;;
3491;SDS011;1760;52.480;13.422;2022-10-15T06:35:32;13.10;;;9.50;;
3491;SDS011;1760;52.480;13.422;2022-10-15T06:38:00;13.90;;;8.60;;
3491;SDS011;1760;52.480;13.422;2022-10-15T06:40:30;20.57;;;10.20;;
3491;SDS011;1760;52.480;13.422;2022-10-15T06:43:03;14.60;;;8.70;;
3491;SDS011;1760;52.480;13.422;2022-10-15T06:45:33;14.57;;;9.23;;
3491;SDS011;1760;52.480;13.422;2022-10-15T06:48:06;14.90;;;8.77;;
3491;SDS011;1760;52.480;13.422;2022-10-15T06:50:34;12.97;;;8.43;;
3491;SDS011;1760;52.480;13.422;2022-10-15T06:53:04;12.73;;;8.97;;
3491;SDS011;1760;52.480;13.422;2022-10-15T06:55:34;10.87;;;8.10;;
3491;SDS011;1760;52.480;13.422;2022-10-15T06:58:03;14.33;;;9.00;;
3491;SDS011;1760;52.480;13.422;2022-10-15T07:00:30;12.97;;;9.10;;
3491;SDS011;1760;52.480;13.422;2022-10-15T07:03:02;13.20;;;8.97;;
3491;SDS011;1760;52.480;13.422;2022-10-15T07:05:29;10.43;;;7.23;;
3491;SDS011;1760;52.480;13.422;2022-10-15T07:07:56;14.57;;;8.60;;
3491;SDS011;1760;52.480;13.422;2022-10-15T07:10:27;15.33;;;7.97;;
3491;SDS011;1760;52.480;13.422;2022-10-15T07:12:53;15.30;;;7.87;;
3491;SDS011;1760;52.480;13.422;2022-10-15T07:15:20;11.47;;;7.53;;
3491;SDS011;1760;52.480;13.422;2022-10-15T07:17:48;12.63;;;7.57;;
3491;SDS011;1760;52.480;13.422;2022-10-15T07:20:17;10.30;;;7.53;;
3491;SDS011;1760;52.480;13.422;2022-10-15T07:22:47;16.10;;;9.10;;
3491;SDS011;1760;52.480;13.422;2022-10-15T07:25:14;20.90;;;8.17;;
3491;SDS011;1760;52.480;13.422;2022-10-15T07:27:41;13.80;;;6.70;;
3491;SDS011;1760;52.480;13.422;2022-10-15T07:30:08;10.70;;;7.17;;
3491;SDS011;1760;52.480;13.422;2022-10-15T07:32:35;11.23;;;6.20;;
3491;SDS011;1760;52.480;13.422;2022-10-15T07:35:02;17.80;;;6.80;;
3491;SDS011;1760;52.480;13.422;2022-10-15T07:37:31;9.23;;;6.67;;
3491;SDS011;1760;52.480;13.422;2022-10-15T07:39:58;12.80;;;7.27;;
3491;SDS011;1760;52.480;13.422;2022-10-15T07:42:25;9.20;;;6.70;;
3491;SDS011;1760;52.480;13.422;2022-10-15T07:44:52;8.93;;;5.80;;
3491;SDS011;1760;52.480;13.422;2022-10-15T07:47:20;11.03;;;6.20;;
3491;SDS011;1760;52.480;13.422;2022-10-15T07:49:47;11.20;;;6.30;;
3491;SDS011;1760;52.480;13.422;2022-10-15T07:52:17;10.67;;;7.00;;
3491;SDS011;1760;52.480;13.422;2022-10-15T07:54:48;7.90;;;6.27;;
3491;SDS011;1760;52.480;13.422;2022-10-15T07:57:17;9.83;;;6.23;;
3491;SDS011;1760;52.480;13.422;2022-10-15T07:59:44;8.60;;;6.90;;
3491;SDS011;1760;52.480;13.422;2022-10-15T08:02:17;9.20;;;6.33;;
3491;SDS011;1760;52.480;13.422;2022-10-15T08:04:47;8.60;;;7.00;;
3491;SDS011;1760;52.480;13.422;2022-10-15T08:07:14;7.73;;;5.57;;
3491;SDS011;1760;52.480;13.422;2022-10-15T08:09:40;8.07;;;5.50;;
3491;SDS011;1760;52.480;13.422;2022-10-15T08:12:09;9.97;;;6.57;;
3491;SDS011;1760;52.480;13.422;2022-10-15T08:14:35;11.07;;;7.07;;
3491;SDS011;1760;52.480;13.422;2022-10-15T08:17:03;9.93;;;6.07;;
3491;SDS011;1760;52.480;13.422;2022-10-15T08:19:30;10.17;;;7.53;;
3491;SDS011;1760;52.480;13.422;2022-10-15T08:21:57;8.33;;;6.20;;
3491;SDS011;1760;52.480;13.422;2022-10-15T08:24:24;7.23;;;5.30;;
3491;SDS011;1760;52.480;13.422;2022-10-15T08:26:51;8.00;;;5.73;;
3491;SDS011;1760;52.480;13.422;2022-10-15T08:29:19;13.17;;;6.20;;
3491;SDS011;1760;52.480;13.422;2022-10-15T08:31:46;6.83;;;5.20;;
3491;SDS011;1760;52.480;13.422;2022-10-15T08:34:13;6.70;;;4.80;;
3491;SDS011;1760;52.480;13.422;2022-10-15T08:36:42;6.40;;;5.30;;
3491;SDS011;1760;52.480;13.422;2022-10-15T08:39:09;6.83;;;5.40;;
3491;SDS011;1760;52.480;13.422;2022-10-15T08:41:39;8.70;;;5.83;;
3491;SDS011;1760;52.480;13.422;2022-10-15T08:44:19;7.90;;;4.30;;
3491;SDS011;1760;52.480;13.422;2022-10-15T08:46:51;6.30;;;4.70;;
3491;SDS011;1760;52.480;13.422;2022-10-15T08:49:28;7.63;;;6.40;;
3491;SDS011;1760;52.480;13.422;2022-10-15T08:52:06;6.53;;;5.27;;
3491;SDS011;1760;52.480;13.422;2022-10-15T08:54:39;6.30;;;4.27;;
3491;SDS011;1760;52.480;13.422;2022-10-15T08:57:08;6.97;;;5.87;;
3491;SDS011;1760;52.480;13.422;2022-10-15T08:59:47;6.67;;;6.00;;
3491;SDS011;1760;52.480;13.422;2022-10-15T09:02:22;7.53;;;5.60;;
3491;SDS011;1760;52.480;13.422;2022-10-15T09:04:54;15.33;;;5.37;;
3491;SDS011;1760;52.480;13.422;2022-10-15T09:07:29;10.97;;;5.77;;
3491;SDS011;1760;52.480;13.422;2022-10-15T09:10:09;5.80;;;4.50;;
3491;SDS011;1760;52.480;13.422;2022-10-15T09:12:42;10.17;;;5.30;;
3491;SDS011;1760;52.480;13.422;2022-10-15T09:15:17;7.60;;;5.53;;
3491;SDS011;1760;52.480;13.422;2022-10-15T09:17:47;7.70;;;5.60;;
3491;SDS011;1760;52.480;13.422;2022-10-15T09:20:17;7.47;;;5.40;;
3491;SDS011;1760;52.480;13.422;2022-10-15T09:22:50;8.23;;;4.87;;
3491;SDS011;1760;52.480;13.422;2022-10-15T09:25:19;9.90;;;5.20;;
3491;SDS011;1760;52.480;13.422;2022-10-15T09:27:48;6.50;;;5.53;;
3491;SDS011;1760;52.480;13.422;2022-10-15T09:30:21;5.70;;;5.00;;
3491;SDS011;1760;52.480;13.422;2022-10-15T09:32:54;8.60;;;5.40;;
3491;SDS011;1760;52.480;13.422;2022-10-15T09:35:27;7.60;;;5.50;;
3491;SDS011;1760;52.480;13.422;2022-10-15T09:37:58;6.87;;;5.07;;
3491;SDS011;1760;52.480;13.422;2022-10-15T09:40:38;10.43;;;4.50;;
3491;SDS011;1760;52.480;13.422;2022-10-15T09:43:15;5.23;;;4.73;;
3491;SDS011;1760;52.480;13.422;2022-10-15T09:45:52;9.77;;;4.97;;
3491;SDS011;1760;52.480;13.422;2022-10-15T09:48:19;5.90;;;4.50;;
3491;SDS011;1760;52.480;13.422;2022-10-15T09:50:48;5.73;;;4.27;;
3491;SDS011;1760;52.480;13.422;2022-10-15T09:53:22;6.53;;;4.47;;
3491;SDS011;1760;52.480;13.422;2022-10-15T09:56:02;6.07;;;4.27;;
3491;SDS011;1760;52.480;13.422;2022-10-15T09:58:37;8.00;;;4.73;;
3491;SDS011;1760;52.480;13.422;2022-10-15T10:01:15;5.87;;;4.80;;
3491;SDS011;1760;52.480;13.422;2022-10-15T10:03:44;7.40;;;4.90;;
3491;SDS011;1760;52.480;13.422;2022-10-15T10:06:20;10.07;;;6.37;;
3491;SDS011;1760;52.480;13.422;2022-10-15T10:08:50;8.37;;;4.77;;
3491;SDS011;1760;52.480;13.422;2022-10-15T10:11:19;6.03;;;4.50;;
3491;SDS011;1760;52.480;13.422;2022-10-15T10:13:52;6.00;;;4.80;;
3491;SDS011;1760;52.480;13.422;2022-10-15T10:16:24;5.60;;;4.40;;
3491;SDS011;1760;52.480;13.422;2022-10-15T10:19:03;4.80;;;4.03;;
3491;SDS011;1760;52.480;13.422;2022-10-15T10:21:32;5.00;;;3.70;;
3491;SDS011;1760;52.480;13.422;2022-10-15T10:26:54;7.50;;;4.20;;
3491;SDS011;1760;52.480;13.422;2022-10-15T10:29:21;7.63;;;5.07;;
3491;SDS011;1760;52.480;13.422;2022-10-15T10:31:50;4.50;;;3.77;;
3491;SDS011;1760;52.480;13.422;2022-10-15T10:34:20;4.17;;;3.77;;
3491;SDS011;1760;52.480;13.422;2022-10-15T10:36:52;5.27;;;3.57;;
3491;SDS011;1760;52.480;13.422;2022-10-15T10:39:23;5.77;;;4.40;;
3491;SDS011;1760;52.480;13.422;2022-10-15T10:41:53;8.57;;;5.13;;
3491;SDS011;1760;52.480;13.422;2022-10-15T10:44:24;5.40;;;4.33;;
3491;SDS011;1760;52.480;13.422;2022-10-15T10:49:47;4.30;;;3.77;;
3491;SDS011;1760;52.480;13.422;2022-10-15T10:52:19;6.33;;;4.20;;
3491;SDS011;1760;52.480;13.422;2022-10-15T10:54:47;5.03;;;3.90;;
3491;SDS011;1760;52.480;13.422;2022-10-15T10:57:24;6.00;;;3.73;;
3491;SDS011;1760;52.480;13.422;2022-10-15T11:00:00;5.73;;;3.80;;
3491;SDS011;1760;52.480;13.422;2022-10-15T11:02:31;3.60;;;3.20;;
3491;SDS011;1760;52.480;13.422;2022-10-15T11:05:05;6.47;;;4.30;;
3491;SDS011;1760;52.480;13.422;2022-10-15T11:07:33;4.60;;;3.73;;
3491;SDS011;1760;52.480;13.422;2022-10-15T11:10:07;6.83;;;4.03;;
3491;SDS011;1760;52.480;13.422;2022-10-15T11:12:42;4.90;;;3.60;;
3491;SDS011;1760;52.480;13.422;2022-10-15T11:15:26;5.23;;;4.50;;
3491;SDS011;1760;52.480;13.422;2022-10-15T11:18:06;5.60;;;4.20;;
3491;SDS011;1760;52.480;13.422;2022-10-15T11:20:48;6.00;;;3.90;;
3491;SDS011;1760;52.480;13.422;2022-10-15T11:23:25;5.27;;;4.17;;
3491;SDS011;1760;52.480;13.422;2022-10-15T11:26:07;4.97;;;3.83;;
3491;SDS011;1760;52.480;13.422;2022-10-15T11:28:48;6.50;;;3.00;;
3491;SDS011;1760;52.480;13.422;2022-10-15T11:31:24;6.07;;;3.87;;
3491;SDS011;1760;52.480;13.422;2022-10-15T11:34:03;3.97;;;3.37;;
3491;SDS011;1760;52.480;13.422;2022-10-15T11:36:45;7.73;;;3.53;;
3491;SDS011;1760;52.480;13.422;2022-10-15T11:39:28;6.30;;;3.43;;
3491;SDS011;1760;52.480;13.422;2022-10-15T11:42:02;4.00;;;3.47;;
3491;SDS011;1760;52.480;13.422;2022-10-15T11:44:42;3.43;;;3.13;;
3491;SDS011;1760;52.480;13.422;2022-10-15T11:47:35;3.87;;;3.10;;
3491;SDS011;1760;52.480;13.422;2022-10-15T11:50:18;3.83;;;3.20;;
3491;SDS011;1760;52.480;13.422;2022-10-15T11:52:56;5.77;;;3.10;;
3491;SDS011;1760;52.480;13.422;2022-10-15T11:55:49;4.70;;;3.33;;
3491;SDS011;1760;52.480;13.422;2022-10-15T11:58:20;3.20;;;2.90;;
3491;SDS011;1760;52.480;13.422;2022-10-15T12:00:54;5.40;;;3.00;;
3491;SDS011;1760;52.480;13.422;2022-10-15T12:03:26;4.73;;;2.80;;
3491;SDS011;1760;52.480;13.422;2022-10-15T12:05:57;6.20;;;3.73;;
3491;SDS011;1760;52.480;13.422;2022-10-15T12:08:29;5.27;;;3.10;;
3491;SDS011;1760;52.480;13.422;2022-10-15T12:11:02;3.70;;;3.10;;
3491;SDS011;1760;52.480;13.422;2022-10-15T12:13:38;4.37;;;3.20;;
3491;SDS011;1760;52.480;13.422;2022-10-15T12:16:15;8.33;;;3.63;;
3491;SDS011;1760;52.480;13.422;2022-10-15T12:18:52;5.10;;;3.80;;
3491;SDS011;1760;52.480;13.422;2022-10-15T12:21:30;4.63;;;3.50;;
3491;SDS011;1760;52.480;13.422;2022-10-15T12:24:00;3.20;;;2.90;;
3491;SDS011;1760;52.480;13.422;2022-10-15T12:26:28;4.73;;;3.83;;
3491;SDS011;1760;52.480;13.422;2022-10-15T12:28:58;6.07;;;3.40;;
3491;SDS011;1760;52.480;13.422;2022-10-15T12:31:33;7.43;;;3.60;;
3491;SDS011;1760;52.480;13.422;2022-10-15T12:34:20;8.10;;;3.40;;
3491;SDS011;1760;52.480;13.422;2022-10-15T12:37:03;3.13;;;2.53;;
3491;SDS011;1760;52.480;13.422;2022-10-15T12:39:33;3.30;;;2.57;;
3491;SDS011;1760;52.480;13.422;2022-10-15T12:42:02;3.60;;;2.83;;
3491;SDS011;1760;52.480;13.422;2022-10-15T12:44:33;4.07;;;2.70;;
3491;SDS011;1760;52.480;13.422;2022-10-15T12:47:03;4.27;;;3.60;;
3491;SDS011;1760;52.480;13.422;2022-10-15T12:49:44;4.43;;;3.30;;
3491;SDS011;1760;52.480;13.422;2022-10-15T12:55:24;3.23;;;2.80;;
3491;SDS011;1760;52.480;13.422;2022-10-15T12:57:53;3.60;;;3.23;;
3491;SDS011;1760;52.480;13.422;2022-10-15T13:00:35;2.63;;;2.43;;
3491;SDS011;1760;52.480;13.422;2022-10-15T13:03:13;5.53;;;4.23;;
3491;SDS011;1760;52.480;13.422;2022-10-15T13:06:21;3.37;;;3.07;;
3491;SDS011;1760;52.480;13.422;2022-10-15T13:08:53;5.10;;;2.67;;
3491;SDS011;1760;52.480;13.422;2022-10-15T13:11:26;3.60;;;3.00;;
3491;SDS011;1760;52.480;13.422;2022-10-15T13:13:56;3.77;;;2.90;;
3491;SDS011;1760;52.480;13.422;2022-10-15T13:16:25;2.50;;;2.10;;
3491;SDS011;1760;52.480;13.422;2022-10-15T13:18:53;3.50;;;3.20;;
3491;SDS011;1760;52.480;13.422;2022-10-15T13:21:21;5.83;;;2.90;;
3491;SDS011;1760;52.480;13.422;2022-10-15T13:23:49;3.47;;;2.50;;
3491;SDS011;1760;52.480;13.422;2022-10-15T13:26:19;4.80;;;2.60;;
3491;SDS011;1760;52.480;13.422;2022-10-15T13:28:50;4.70;;;3.17;;
3491;SDS011;1760;52.480;13.422;2022-10-15T13:31:20;2.73;;;2.43;;
3491;SDS011;1760;52.480;13.422;2022-10-15T13:33:49;5.00;;;3.27;;
3491;SDS011;1760;52.480;13.422;2022-10-15T13:36:19;5.03;;;2.83;;
3491;SDS011;1760;52.480;13.422;2022-10-15T13:38:58;4.07;;;2.70;;
3491;SDS011;1760;52.480;13.422;2022-10-15T13:41:32;5.90;;;2.40;;
3491;SDS011;1760;52.480;13.422;2022-10-15T13:44:02;2.93;;;2.37;;
3491;SDS011;1760;52.480;13.422;2022-10-15T13:46:30;3.93;;;2.80;;
3491;SDS011;1760;52.480;13.422;2022-10-15T13:49:01;6.00;;;2.80;;
3491;SDS011;1760;52.480;13.422;2022-10-15T13:51:33;4.63;;;2.60;;
3491;SDS011;1760;52.480;13.422;2022-10-15T13:54:06;2.83;;;2.40;;
3491;SDS011;1760;52.480;13.422;2022-10-15T13:56:36;3.83;;;3.13;;
3491;SDS011;1760;52.480;13.422;2022-10-15T13:59:11;3.17;;;2.87;;
3491;SDS011;1760;52.480;13.422;2022-10-15T14:01:44;6.33;;;4.40;;
3491;SDS011;1760;52.480;13.422;2022-10-15T14:04:13;2.87;;;2.60;;
3491;SDS011;1760;52.480;13.422;2022-10-15T14:06:41;3.80;;;2.40;;
3491;SDS011;1760;52.480;13.422;2022-10-15T14:09:20;2.97;;;2.00;;
3491;SDS011;1760;52.480;13.422;2022-10-15T14:11:55;3.10;;;2.57;;
3491;SDS011;1760;52.480;13.422;2022-10-15T14:14:27;3.13;;;2.40;;
3491;SDS011;1760;52.480;13.422;2022-10-15T14:16:57;3.10;;;2.80;;
3491;SDS011;1760;52.480;13.422;2022-10-15T14:19:25;2.87;;;2.30;;
3491;SDS011;1760;52.480;13.422;2022-10-15T14:21:54;3.40;;;2.53;;
3491;SDS011;1760;52.480;13.422;2022-10-15T14:24:23;2.90;;;2.70;;
3491;SDS011;1760;52.480;13.422;2022-10-15T14:27:03;7.67;;;3.20;;
3491;SDS011;1760;52.480;13.422;2022-10-15T14:29:36;4.77;;;2.37;;
3491;SDS011;1760;52.480;13.422;2022-10-15T14:32:21;2.60;;;2.17;;
3491;SDS011;1760;52.480;13.422;2022-10-15T14:34:50;7.17;;;2.50;;
3491;SDS011;1760;52.480;13.422;2022-10-15T14:37:28;3.73;;;3.10;;
3491;SDS011;1760;52.480;13.422;2022-10-15T14:40:07;2.80;;;2.10;;
3491;SDS011;1760;52.480;13.422;2022-10-15T14:42:45;4.50;;;2.10;;
3491;SDS011;1760;52.480;13.422;2022-10-15T14:45:19;2.77;;;2.23;;
3491;SDS011;1760;52.480;13.422;2022-10-15T14:47:49;3.00;;;2.67;;
3491;SDS011;1760;52.480;13.422;2022-10-15T14:50:18;2.43;;;2.20;;
3491;SDS011;1760;52.480;13.422;2022-10-15T14:52:46;4.13;;;3.83;;
3491;SDS011;1760;52.480;13.422;2022-10-15T14:55:18;3.30;;;2.63;;
3491;SDS011;1760;52.480;13.422;2022-10-15T14:57:58;3.57;;;2.63;;
3491;SDS011;1760;52.480;13.422;2022-10-15T15:00:27;2.67;;;2.10;;
3491;SDS011;1760;52.480;13.422;2022-10-15T15:02:57;2.23;;;2.03;;
3491;SDS011;1760;52.480;13.422;2022-10-15T15:05:27;2.67;;;2.20;;
3491;SDS011;1760;52.480;13.422;2022-10-15T15:07:55;3.10;;;1.83;;
3491;SDS011;1760;52.480;13.422;2022-10-15T15:10:26;2.77;;;2.50;;
3491;SDS011;1760;52.480;13.422;2022-10-15T15:12:54;2.80;;;2.03;;
3491;SDS011;1760;52.480;13.422;2022-10-15T15:15:24;4.50;;;2.53;;
3491;SDS011;1760;52.480;13.422;2022-10-15T15:17:54;3.60;;;2.60;;
3491;SDS011;1760;52.480;13.422;2022-10-15T15:20:21;2.80;;;1.83;;
3491;SDS011;1760;52.480;13.422;2022-10-15T15:22:49;8.47;;;2.30;;
3491;SDS011;1760;52.480;13.422;2022-10-15T15:25:19;3.30;;;1.70;;
3491;SDS011;1760;52.480;13.422;2022-10-15T15:27:54;2.70;;;1.90;;
3491;SDS011;1760;52.480;13.422;2022-10-15T15:30:25;2.63;;;2.43;;
3491;SDS011;1760;52.480;13.422;2022-10-15T15:32:54;2.20;;;2.00;;
3491;SDS011;1760;52.480;13.422;2022-10-15T15:35:22;2.50;;;2.30;;
3491;SDS011;1760;52.480;13.422;2022-10-15T15:37:51;2.57;;;2.37;;
3491;SDS011;1760;52.480;13.422;2022-10-15T15:40:18;2.97;;;2.20;;
3491;SDS011;1760;52.480;13.422;2022-10-15T15:42:45;3.93;;;2.10;;
3491;SDS011;1760;52.480;13.422;2022-10-15T15:45:14;2.90;;;2.63;;
3491;SDS011;1760;52.480;13.422;2022-10-15T15:47:45;3.50;;;2.47;;
3491;SDS011;1760;52.480;13.422;2022-10-15T15:50:12;2.77;;;2.43;;
3491;SDS011;1760;52.480;13.422;2022-10-15T15:52:39;3.67;;;2.57;;
3491;SDS011;1760;52.480;13.422;2022-10-15T15:55:06;3.60;;;2.40;;
3491;SDS011;1760;52.480;13.422;2022-10-15T15:57:34;3.30;;;2.30;;
3491;SDS011;1760;52.480;13.422;2022-10-15T16:00:02;5.60;;;2.67;;
3491;SDS011;1760;52.480;13.422;2022-10-15T16:02:29;4.33;;;3.30;;
3491;SDS011;1760;52.480;13.422;2022-10-15T16:04:57;10.03;;;6.07;;
3491;SDS011;1760;52.480;13.422;2022-10-15T16:07:25;7.03;;;4.90;;
3491;SDS011;1760;52.480;13.422;2022-10-15T16:09:52;26.03;;;12.43;;
3491;SDS011;1760;52.480;13.422;2022-10-15T16:12:19;10.60;;;6.23;;
3491;SDS011;1760;52.480;13.422;2022-10-15T16:14:46;6.77;;;4.97;;
3491;SDS011;1760;52.480;13.422;2022-10-15T16:17:13;6.17;;;4.50;;
3491;SDS011;1760;52.480;13.422;2022-10-15T16:19:40;4.90;;;4.00;;
3491;SDS011;1760;52.480;13.422;2022-10-15T16:22:08;10.10;;;5.20;;